Sweetwater, Nevada
Current Conditions -  °F | °C
As of 6:35 PM on Saturday 25 Oct 2014 (Local Time) from KMEV Reporting Station
Broken Clouds Broken Clouds  
Wind Chill:   Ceiling: 5500
Heat Index:   Visibility: 10mi
Dew Point: -1°   Wind: 13mph
Humidity: 50%   Direction: 270°W
Pressure: 30.08"   Gusts: 24mph
Location:  38.7596°N, 119.34°W
Report Text: KMEV 260135Z AUTO 27011G21KT 10SM BKN055 09/M01 A3008 RMK AO2
Loading
Personal Weather Stations






























Interactive Weather Map
Tropical Storm Tracking
New forecast layout! Learn more

10-Day Weather Forecast

Advertisements
Track Severe Weather on mobile